Time,TemperatureF,DewpointF,PressureIn,WindDirection,WindDirectionDegrees,WindSpeedMPH,WindSpeedGustMPH,Humidity,HourlyPrecipIn,Conditions,Clouds,dailyrainin,SolarRadiationWatts/m^2,SoftwareType,DateUTC
2013-03-08 00:02:00,29.0,21.0,-100.00,North,-999,-999.0,-999.0,71,0.00,,,0.00,0.000000,,2013-03-08 05:02:00,
2013-03-08 00:10:00,29.0,20.0,-100.00,North,-999,-999.0,-999.0,70,0.00,,,0.00,0.000000,,2013-03-08 05:10:00,
2013-03-08 00:33:00,29.0,20.0,-100.00,North,-999,-999.0,-999.0,70,0.00,,,0.00,0.000000,,2013-03-08 05:33:00,
2013-03-08 00:42:00,29.0,20.0,-100.00,North,-999,-999.0,-999.0,70,0.00,,,0.00,0.000000,,2013-03-08 05:42:00,
2013-03-08 00:52:00,29.0,20.0,-100.00,North,-999,-999.0,-999.0,70,0.00,,,0.00,0.000000,,2013-03-08 05:52:00,
2013-03-08 01:02:00,29.0,20.0,-100.00,North,-999,-999.0,-999.0,70,0.00,,,0.00,0.000000,,2013-03-08 06:02:00,
2013-03-08 01:10:00,28.0,20.0,-100.00,North,-999,-999.0,-999.0,70,0.00,,,0.00,0.000000,,2013-03-08 06:10:00,
2013-03-08 01:32:00,28.0,20.0,-100.00,North,-999,-999.0,-999.0,70,0.00,,,0.00,0.000000,,2013-03-08 06:32:00,
2013-03-08 01:42:00,28.0,20.0,-100.00,North,-999,-999.0,-999.0,70,0.00,,,0.00,0.000000,,2013-03-08 06:42:00,
2013-03-08 01:52:00,28.0,20.0,-100.00,North,-999,-999.0,-999.0,70,0.00,,,0.00,0.000000,,2013-03-08 06:52:00,
2013-03-08 02:01:00,28.0,20.0,-100.00,North,-999,-999.0,-999.0,70,0.00,,,0.00,0.000000,,2013-03-08 07:01:00,
2013-03-08 02:10:00,28.0,20.0,-100.00,North,-999,-999.0,-999.0,71,0.00,,,0.00,0.000000,,2013-03-08 07:10:00,
2013-03-08 02:32:00,28.0,20.0,-100.00,North,-999,-999.0,-999.0,71,0.00,,,0.00,0.000000,,2013-03-08 07:32:00,
2013-03-08 02:42:00,28.0,20.0,-100.00,North,-999,-999.0,-999.0,71,0.00,,,0.00,0.000000,,2013-03-08 07:42:00,
2013-03-08 02:52:00,28.0,20.0,-100.00,North,-999,-999.0,-999.0,71,0.00,,,0.00,0.000000,,2013-03-08 07:52:00,
2013-03-08 03:01:00,28.0,20.0,-100.00,North,-999,-999.0,-999.0,71,0.00,,,0.00,0.000000,,2013-03-08 08:01:00,
2013-03-08 03:10:00,29.0,21.0,-100.00,North,-999,-999.0,-999.0,71,0.00,,,0.00,0.000000,,2013-03-08 08:10:00,
2013-03-08 03:32:00,29.0,21.0,-100.00,North,-999,-999.0,-999.0,71,0.00,,,0.00,0.000000,,2013-03-08 08:32:00,
2013-03-08 03:42:00,29.0,21.0,-100.00,North,-999,-999.0,-999.0,71,0.00,,,0.00,0.000000,,2013-03-08 08:42:00,
2013-03-08 03:52:00,29.0,21.0,-100.00,North,-999,-999.0,-999.0,71,0.00,,,0.00,0.000000,,2013-03-08 08:52:00,
2013-03-08 04:03:00,29.0,21.0,-100.00,North,-999,-999.0,-999.0,71,0.00,,,0.00,0.000000,,2013-03-08 09:03:00,
2013-03-08 04:10:00,29.0,20.0,-100.00,North,-999,-999.0,-999.0,68,0.00,,,0.00,0.000000,,2013-03-08 09:10:00,
2013-03-08 04:32:00,29.0,20.0,-100.00,North,-999,-999.0,-999.0,68,0.00,,,0.00,0.000000,,2013-03-08 09:32:00,
2013-03-08 04:42:00,29.0,20.0,-100.00,North,-999,-999.0,-999.0,68,0.00,,,0.00,0.000000,,2013-03-08 09:42:00,
2013-03-08 04:52:00,29.0,20.0,-100.00,North,-999,-999.0,-999.0,68,0.00,,,0.00,0.000000,,2013-03-08 09:52:00,
2013-03-08 05:01:00,29.0,20.0,-100.00,North,-999,-999.0,-999.0,68,0.00,,,0.00,0.000000,,2013-03-08 10:01:00,
2013-03-08 05:10:00,27.0,19.0,-100.00,North,-999,-999.0,-999.0,72,0.00,,,0.00,0.000000,,2013-03-08 10:10:00,
2013-03-08 05:32:00,27.0,19.0,-100.00,North,-999,-999.0,-999.0,72,0.00,,,0.00,0.000000,,2013-03-08 10:32:00,
2013-03-08 05:42:00,27.0,19.0,-100.00,North,-999,-999.0,-999.0,72,0.00,,,0.00,0.000000,,2013-03-08 10:42:00,
2013-03-08 05:52:00,27.0,19.0,-100.00,North,-999,-999.0,-999.0,72,0.00,,,0.00,0.000000,,2013-03-08 10:52:00,
2013-03-08 06:01:00,27.0,19.0,-100.00,North,-999,-999.0,-999.0,72,0.00,,,0.00,0.000000,,2013-03-08 11:01:00,
2013-03-08 06:10:00,28.0,20.0,-100.00,North,-999,-999.0,-999.0,72,0.00,,,0.00,0.000000,,2013-03-08 11:10:00,
2013-03-08 06:32:00,28.0,20.0,-100.00,North,-999,-999.0,-999.0,72,0.00,,,0.00,0.000000,,2013-03-08 11:32:00,
2013-03-08 06:42:00,28.0,20.0,-100.00,North,-999,-999.0,-999.0,72,0.00,,,0.00,0.000000,,2013-03-08 11:42:00,
2013-03-08 06:52:00,28.0,20.0,-100.00,North,-999,-999.0,-999.0,72,0.00,,,0.00,0.000000,,2013-03-08 11:52:00,
2013-03-08 07:02:00,28.0,20.0,-100.00,North,-999,-999.0,-999.0,72,0.00,,,0.00,0.000000,,2013-03-08 12:02:00,
2013-03-08 07:10:00,28.0,20.0,-100.00,North,-999,-999.0,-999.0,73,0.00,,,0.00,0.000000,,2013-03-08 12:10:00,
2013-03-08 07:32:00,28.0,20.0,-100.00,North,-999,-999.0,-999.0,73,0.00,,,0.00,0.000000,,2013-03-08 12:32:00,
2013-03-08 07:43:00,28.0,20.0,-100.00,North,-999,-999.0,-999.0,73,0.00,,,0.00,0.000000,,2013-03-08 12:43:00,
2013-03-08 07:53:00,28.0,20.0,-100.00,North,-999,-999.0,-999.0,73,0.00,,,0.00,0.000000,,2013-03-08 12:53:00,
2013-03-08 08:02:00,28.0,20.0,-100.00,North,-999,-999.0,-999.0,73,0.00,,,0.00,0.000000,,2013-03-08 13:02:00,
2013-03-08 08:10:00,31.0,21.0,-100.00,North,-999,-999.0,-999.0,66,0.00,,,-99.99,0.000000,,2013-03-08 13:10:00,
2013-03-08 08:42:00,31.0,21.0,-100.00,North,-999,-999.0,-999.0,66,0.00,,,-99.99,0.000000,,2013-03-08 13:42:00,
2013-03-08 08:52:00,31.0,21.0,-100.00,North,-999,-999.0,-999.0,66,0.00,,,-99.99,0.000000,,2013-03-08 13:52:00,
2013-03-08 09:03:00,31.0,21.0,-100.00,North,-999,-999.0,-999.0,66,0.00,,,-99.99,0.000000,,2013-03-08 14:03:00,
2013-03-08 09:10:00,36.0,21.0,-100.00,North,-999,-999.0,-999.0,54,0.00,,,0.00,0.000000,,2013-03-08 14:10:00,
2013-03-08 09:33:00,36.0,21.0,-100.00,North,-999,-999.0,-999.0,54,0.00,,,0.00,0.000000,,2013-03-08 14:33:00,
2013-03-08 09:42:00,36.0,21.0,-100.00,North,-999,-999.0,-999.0,54,0.00,,,0.00,0.000000,,2013-03-08 14:42:00,
2013-03-08 09:53:00,36.0,21.0,-100.00,North,-999,-999.0,-999.0,54,0.00,,,0.00,0.000000,,2013-03-08 14:53:00,
2013-03-08 10:03:00,36.0,21.0,-100.00,North,-999,-999.0,-999.0,54,0.00,,,0.00,0.000000,,2013-03-08 15:03:00,
2013-03-08 10:10:00,39.0,20.0,-100.00,North,-999,-999.0,-999.0,46,0.00,,,0.00,0.000000,,2013-03-08 15:10:00,
2013-03-08 10:32:00,39.0,20.0,-100.00,North,-999,-999.0,-999.0,46,0.00,,,0.00,0.000000,,2013-03-08 15:32:00,
2013-03-08 10:43:00,39.0,20.0,-100.00,North,-999,-999.0,-999.0,46,0.00,,,0.00,0.000000,,2013-03-08 15:43:00,
2013-03-08 10:53:00,39.0,20.0,-100.00,North,-999,-999.0,-999.0,46,0.00,,,0.00,0.000000,,2013-03-08 15:53:00,
2013-03-08 11:02:00,39.0,20.0,-100.00,North,-999,-999.0,-999.0,46,0.00,,,0.00,0.000000,,2013-03-08 16:02:00,
2013-03-08 11:10:00,42.0,19.0,-100.00,North,-999,-999.0,-999.0,39,0.00,,,0.00,0.000000,,2013-03-08 16:10:00,
2013-03-08 11:32:00,42.0,19.0,-100.00,North,-999,-999.0,-999.0,39,0.00,,,0.00,0.000000,,2013-03-08 16:32:00,
2013-03-08 11:42:00,42.0,19.0,-100.00,North,-999,-999.0,-999.0,39,0.00,,,0.00,0.000000,,2013-03-08 16:42:00,
2013-03-08 11:52:00,42.0,19.0,-100.00,North,-999,-999.0,-999.0,39,0.00,,,0.00,0.000000,,2013-03-08 16:52:00,
2013-03-08 12:03:00,42.0,19.0,-100.00,North,-999,-999.0,-999.0,39,0.00,,,0.00,0.000000,,2013-03-08 17:03:00,
2013-03-08 12:10:00,47.0,19.0,-100.00,North,-999,-999.0,-999.0,32,0.00,,,0.00,0.000000,,2013-03-08 17:10:00,
2013-03-08 12:32:00,47.0,19.0,-100.00,North,-999,-999.0,-999.0,32,0.00,,,0.00,0.000000,,2013-03-08 17:32:00,
2013-03-08 12:42:00,47.0,19.0,-100.00,North,-999,-999.0,-999.0,32,0.00,,,0.00,0.000000,,2013-03-08 17:42:00,
2013-03-08 12:52:00,47.0,19.0,-100.00,North,-999,-999.0,-999.0,32,0.00,,,0.00,0.000000,,2013-03-08 17:52:00,
2013-03-08 13:02:00,47.0,19.0,-100.00,North,-999,-999.0,-999.0,32,0.00,,,0.00,0.000000,,2013-03-08 18:02:00,
2013-03-08 13:10:00,48.0,18.0,-100.00,North,-999,-999.0,-999.0,30,0.00,,,0.00,0.000000,,2013-03-08 18:10:00,
2013-03-08 13:32:00,48.0,18.0,-100.00,North,-999,-999.0,-999.0,30,0.00,,,0.00,0.000000,,2013-03-08 18:32:00,
2013-03-08 13:42:00,48.0,18.0,-100.00,North,-999,-999.0,-999.0,30,0.00,,,0.00,0.000000,,2013-03-08 18:42:00,
2013-03-08 13:52:00,48.0,18.0,-100.00,North,-999,-999.0,-999.0,30,0.00,,,0.00,0.000000,,2013-03-08 18:52:00,
2013-03-08 14:01:00,48.0,18.0,-100.00,North,-999,-999.0,-999.0,30,0.00,,,0.00,0.000000,,2013-03-08 19:01:00,
2013-03-08 14:10:00,48.0,17.0,-100.00,North,-999,-999.0,-999.0,29,0.00,,,0.00,0.000000,,2013-03-08 19:10:00,
2013-03-08 14:42:00,48.0,17.0,-100.00,North,-999,-999.0,-999.0,29,0.00,,,0.00,0.000000,,2013-03-08 19:42:00,
2013-03-08 14:52:00,48.0,17.0,-100.00,North,-999,-999.0,-999.0,29,0.00,,,0.00,0.000000,,2013-03-08 19:52:00,
2013-03-08 15:01:00,48.0,17.0,-100.00,North,-999,-999.0,-999.0,29,0.00,,,0.00,0.000000,,2013-03-08 20:01:00,
2013-03-08 15:10:00,52.0,20.0,-100.00,North,-999,-999.0,-999.0,28,0.00,,,0.00,0.000000,,2013-03-08 20:10:00,
2013-03-08 15:32:00,52.0,20.0,-100.00,North,-999,-999.0,-999.0,28,0.00,,,0.00,0.000000,,2013-03-08 20:32:00,
2013-03-08 15:42:00,52.0,20.0,-100.00,North,-999,-999.0,-999.0,28,0.00,,,0.00,0.000000,,2013-03-08 20:42:00,
2013-03-08 15:53:00,52.0,20.0,-100.00,North,-999,-999.0,-999.0,28,0.00,,,0.00,0.000000,,2013-03-08 20:53:00,
2013-03-08 16:02:00,52.0,20.0,-100.00,North,-999,-999.0,-999.0,28,0.00,,,0.00,0.000000,,2013-03-08 21:02:00,
2013-03-08 16:10:00,49.0,20.0,-100.00,North,-999,-999.0,-999.0,32,0.00,,,0.00,0.000000,,2013-03-08 21:10:00,
2013-03-08 16:33:00,49.0,20.0,-100.00,North,-999,-999.0,-999.0,32,0.00,,,0.00,0.000000,,2013-03-08 21:33:00,
2013-03-08 16:42:00,49.0,20.0,-100.00,North,-999,-999.0,-999.0,32,0.00,,,0.00,0.000000,,2013-03-08 21:42:00,
2013-03-08 16:52:00,49.0,20.0,-100.00,North,-999,-999.0,-999.0,32,0.00,,,0.00,0.000000,,2013-03-08 21:52:00,
2013-03-08 17:02:00,49.0,20.0,-100.00,North,-999,-999.0,-999.0,32,0.00,,,0.00,0.000000,,2013-03-08 22:02:00,
2013-03-08 17:10:00,46.0,21.0,-100.00,North,-999,-999.0,-999.0,36,0.00,,,0.00,0.000000,,2013-03-08 22:10:00,
2013-03-08 17:42:00,46.0,21.0,-100.00,North,-999,-999.0,-999.0,36,0.00,,,0.00,0.000000,,2013-03-08 22:42:00,
2013-03-08 17:53:00,46.0,21.0,-100.00,North,-999,-999.0,-999.0,36,0.00,,,0.00,0.000000,,2013-03-08 22:53:00,
2013-03-08 18:02:00,46.0,21.0,-100.00,North,-999,-999.0,-999.0,36,0.00,,,0.00,0.000000,,2013-03-08 23:02:00,
2013-03-08 18:10:00,41.0,22.0,-100.00,North,-999,-999.0,-999.0,46,0.00,,,0.00,0.000000,,2013-03-08 23:10:00,
2013-03-08 18:42:00,41.0,22.0,-100.00,North,-999,-999.0,-999.0,46,0.00,,,0.00,0.000000,,2013-03-08 23:42:00,
2013-03-08 18:53:00,41.0,22.0,-100.00,North,-999,-999.0,-999.0,46,0.00,,,0.00,0.000000,,2013-03-08 23:53:00,
2013-03-08 19:02:00,41.0,22.0,-100.00,North,-999,-999.0,-999.0,46,0.00,,,0.00,0.000000,,2013-03-09 00:02:00,
2013-03-08 19:10:00,38.0,22.0,-100.00,North,-999,-999.0,-999.0,52,0.00,,,0.00,0.000000,,2013-03-09 00:10:00,
2013-03-08 19:42:00,38.0,22.0,-100.00,North,-999,-999.0,-999.0,52,0.00,,,0.00,0.000000,,2013-03-09 00:42:00,
2013-03-08 19:52:00,38.0,22.0,-100.00,North,-999,-999.0,-999.0,52,0.00,,,0.00,0.000000,,2013-03-09 00:52:00,
2013-03-08 20:02:00,38.0,22.0,-100.00,North,-999,-999.0,-999.0,52,0.00,,,0.00,0.000000,,2013-03-09 01:02:00,
2013-03-08 22:10:00,38.0,21.0,-100.00,North,-999,-999.0,-999.0,49,-99.99,,,0.00,0.000000,,2013-03-09 03:10:00,
2013-03-08 22:32:00,38.0,21.0,-100.00,North,-999,-999.0,-999.0,49,-99.99,,,0.00,0.000000,,2013-03-09 03:32:00,
2013-03-08 22:42:00,38.0,21.0,-100.00,North,-999,-999.0,-999.0,49,-99.99,,,0.00,0.000000,,2013-03-09 03:42:00,
2013-03-08 22:52:00,38.0,21.0,-100.00,North,-999,-999.0,-999.0,49,-99.99,,,0.00,0.000000,,2013-03-09 03:52:00,
2013-03-08 23:01:00,38.0,21.0,-100.00,North,-999,-999.0,-999.0,49,-99.99,,,0.00,0.000000,,2013-03-09 04:01:00,
2013-03-08 23:10:00,37.0,21.0,-100.00,North,-999,-999.0,-999.0,53,0.00,,,0.00,0.000000,,2013-03-09 04:10:00,
2013-03-08 23:32:00,37.0,21.0,-100.00,North,-999,-999.0,-999.0,53,0.00,,,0.00,0.000000,,2013-03-09 04:32:00,
2013-03-08 23:42:00,37.0,21.0,-100.00,North,-999,-999.0,-999.0,53,0.00,,,0.00,0.000000,,2013-03-09 04:42:00,
2013-03-08 23:52:00,37.0,21.0,-100.00,North,-999,-999.0,-999.0,53,0.00,,,0.00,0.000000,,2013-03-09 04:52:00,